アスタナ の空港の天気 - METARとTAF

アスタナ国際空港 ( UACC / TSE ) - カザフスタン アスタナ
飛行場実況気象(Metar)
観測時間05/25 16:00 +06 (05/25 10:00 UTC)
風向・風速北西 5m/s
視程10km以上
天気現象
なし
気温19℃
湿度26%
気圧1018hPa
METARUACC 251000Z 32005MPS 270V340 CAVOK 19/M01 Q1018 R22/0///70 NOSIG RMK QFE732/0976
過去の天気等 Google飛行場航空写真 Wunderground天気予報

過去48時間のMETAR

飛行場予報(TAF)
発表時間: 5/25 11:00 +06 (5/25 05:00 UTC)
予報対象時間: 25日12時 +06 ~ 26日12時 +06
風向・風速西北西 6m/s
視程10km以上
全天の4割程度の雲 雲底高度 910m
全天の4割程度の雲 雲底高度 3,050m
TAF UACC 250500Z 2506/2606 29006MPS 9999 SCT030 SCT100 TX20/2509Z TN05/2523Z